createdAt,value
2017-12-21T01:37:27.063Z,8.50
2017-12-21T01:37:27.633Z,8.57
2017-12-21T01:37:28.234Z,8.57
2017-12-21T01:37:28.833Z,8.57
2017-12-21T01:37:29.432Z,8.53
2017-12-21T01:37:30.032Z,8.58
2017-12-21T01:37:30.631Z,8.54
2017-12-21T01:37:31.235Z,8.60
2017-12-21T01:38:24.691Z,8.55
2017-12-21T01:38:25.287Z,8.55
2017-12-21T01:38:25.886Z,8.58
2017-12-21T01:38:26.486Z,8.54
2017-12-21T01:38:27.086Z,8.57
2017-12-21T01:38:27.685Z,8.54
2017-12-21T01:38:28.288Z,8.57
2017-12-21T01:38:28.886Z,8.60
2017-12-21T01:39:22.344Z,8.50
2017-12-21T01:39:22.938Z,8.57
2017-12-21T01:39:23.538Z,8.60
2017-12-21T01:39:24.137Z,8.60
2017-12-21T01:39:24.737Z,8.57
2017-12-21T01:39:25.337Z,8.60
2017-12-21T01:39:25.938Z,8.55
2017-12-21T01:39:26.537Z,8.55
2017-12-21T01:40:19.995Z,8.57
2017-12-21T01:40:20.591Z,8.58
2017-12-21T01:40:21.192Z,8.54
2017-12-21T01:40:21.790Z,8.54
2017-12-21T01:40:22.391Z,8.60
2017-12-21T01:40:22.997Z,8.58
2017-12-21T01:40:23.593Z,8.51
2017-12-21T01:40:24.189Z,8.60
2017-12-21T01:41:17.678Z,8.55
2017-12-21T01:41:18.244Z,8.57
2017-12-21T01:41:18.842Z,8.58
2017-12-21T01:41:19.443Z,8.60
2017-12-21T01:41:20.044Z,8.54
2017-12-21T01:41:20.644Z,8.63
2017-12-21T01:41:21.242Z,8.62
2017-12-21T01:41:21.843Z,8.63
2017-12-21T01:42:16.323Z,8.60
2017-12-21T01:42:16.918Z,8.57
2017-12-21T01:42:17.518Z,8.60
2017-12-21T01:42:18.118Z,8.58
2017-12-21T01:42:18.717Z,8.60
2017-12-21T01:42:19.318Z,8.58
2017-12-21T01:42:19.918Z,8.60
2017-12-21T01:42:20.516Z,8.55
2017-12-21T01:43:13.976Z,8.55
2017-12-21T01:43:14.574Z,8.58
2017-12-21T01:43:15.172Z,8.63
2017-12-21T01:43:15.771Z,8.62
2017-12-21T01:43:16.370Z,8.54
2017-12-21T01:43:16.972Z,8.58
2017-12-21T01:43:17.570Z,8.58
2017-12-21T01:43:18.168Z,8.54
2017-12-21T01:44:12.652Z,8.60
2017-12-21T01:44:13.247Z,8.58
2017-12-21T01:44:13.846Z,8.55
2017-12-21T01:44:14.446Z,8.58
2017-12-21T01:44:15.046Z,8.60
2017-12-21T01:44:15.646Z,8.58
2017-12-21T01:44:16.245Z,8.55
2017-12-21T01:44:16.845Z,8.57
2017-12-21T01:45:11.326Z,8.58
2017-12-21T01:45:11.922Z,8.55
2017-12-21T01:45:12.523Z,8.60
2017-12-21T01:45:13.123Z,8.58
2017-12-21T01:45:13.722Z,8.58
2017-12-21T01:45:14.321Z,8.71
2017-12-21T01:45:14.921Z,8.58
2017-12-21T01:45:15.524Z,8.58
2017-12-21T01:46:08.980Z,8.58
2017-12-21T01:46:09.576Z,8.63
2017-12-21T01:46:10.176Z,8.69
2017-12-21T01:46:10.774Z,8.66
2017-12-21T01:46:11.374Z,8.71
2017-12-21T01:46:11.976Z,8.62
2017-12-21T01:46:12.574Z,8.60
2017-12-21T01:46:13.175Z,8.63
2017-12-21T01:47:06.663Z,8.66
2017-12-21T01:47:07.229Z,8.63
2017-12-21T01:47:07.826Z,8.71
2017-12-21T01:47:08.427Z,8.65
2017-12-21T01:47:09.026Z,8.71
2017-12-21T01:47:09.627Z,8.66
2017-12-21T01:47:10.226Z,8.63
2017-12-21T01:47:10.827Z,8.63
2017-12-21T01:48:05.304Z,8.62
2017-12-21T01:48:05.902Z,8.69
2017-12-21T01:48:06.502Z,8.65
2017-12-21T01:48:07.102Z,8.62
2017-12-21T01:48:07.701Z,8.66
2017-12-21T01:48:08.302Z,8.63
2017-12-21T01:48:08.902Z,8.65
2017-12-21T01:48:09.502Z,8.71
2017-12-21T01:49:02.959Z,8.68
2017-12-21T01:49:03.555Z,8.68
2017-12-21T01:49:04.155Z,8.71
2017-12-21T01:49:04.754Z,8.68
2017-12-21T01:49:05.354Z,8.63
2017-12-21T01:49:05.955Z,8.72
2017-12-21T01:49:06.554Z,8.73
2017-12-21T01:49:07.153Z,8.55
2017-12-21T01:50:00.611Z,8.68
2017-12-21T01:50:01.207Z,8.73
2017-12-21T01:50:01.806Z,8.73
2017-12-21T01:50:02.406Z,8.69
2017-12-21T01:50:03.006Z,8.69
2017-12-21T01:50:03.609Z,8.68
2017-12-21T01:50:04.206Z,8.66
2017-12-21T01:50:04.805Z,8.72
2017-12-21T01:50:58.262Z,8.76
2017-12-21T01:50:58.857Z,8.68
2017-12-21T01:50:59.458Z,8.69
2017-12-21T01:51:00.057Z,8.73
2017-12-21T01:51:00.659Z,8.69
2017-12-21T01:51:01.258Z,8.79
2017-12-21T01:51:01.859Z,8.69
2017-12-21T01:51:02.457Z,8.66
2017-12-21T01:51:56.424Z,8.68
2017-12-21T01:51:57.026Z,8.68
2017-12-21T01:51:57.621Z,8.76
2017-12-21T01:51:58.220Z,8.69
2017-12-21T01:51:58.821Z,8.69
2017-12-21T01:51:59.424Z,8.66
2017-12-21T01:52:00.021Z,8.73
2017-12-21T01:52:54.510Z,8.72
2017-12-21T01:52:55.083Z,8.71
2017-12-21T01:52:55.682Z,8.69
2017-12-21T01:52:56.282Z,8.81
2017-12-21T01:52:56.884Z,8.71
2017-12-21T01:52:57.483Z,8.69
2017-12-21T01:52:58.083Z,8.68
2017-12-21T01:52:58.685Z,8.69
2017-12-21T01:53:52.138Z,8.66
2017-12-21T01:53:52.736Z,8.69
2017-12-21T01:53:53.335Z,8.72
2017-12-21T01:53:53.934Z,8.71
2017-12-21T01:53:54.535Z,8.71
2017-12-21T01:53:55.141Z,8.66
2017-12-21T01:53:55.734Z,8.71
2017-12-21T01:53:56.334Z,8.72
2017-12-21T01:54:50.813Z,8.71
2017-12-21T01:54:51.410Z,8.81
2017-12-21T01:54:52.014Z,8.78
2017-12-21T01:54:52.610Z,8.75
2017-12-21T01:54:53.210Z,8.79
2017-12-21T01:54:53.810Z,8.72
2017-12-21T01:54:54.409Z,8.79
2017-12-21T01:54:55.008Z,8.79
2017-12-21T01:55:51.027Z,8.79
2017-12-21T01:55:51.623Z,8.71
2017-12-21T01:55:52.223Z,8.81
2017-12-21T01:55:52.821Z,8.72
2017-12-21T01:55:53.423Z,8.66
2017-12-21T01:55:54.022Z,8.69
2017-12-21T01:56:48.063Z,8.81
2017-12-21T01:56:48.662Z,8.75
2017-12-21T01:56:49.262Z,8.79
2017-12-21T01:56:49.859Z,8.83
2017-12-21T01:56:50.459Z,8.79
2017-12-21T01:56:51.059Z,8.73
2017-12-21T01:56:51.658Z,8.75
2017-12-21T01:56:52.259Z,8.69
2017-12-21T01:57:46.766Z,8.76
2017-12-21T01:57:47.335Z,8.90
2017-12-21T01:57:47.932Z,8.81
2017-12-21T01:57:48.535Z,8.86
2017-12-21T01:57:49.133Z,8.90
2017-12-21T01:57:49.734Z,8.76
2017-12-21T01:57:50.333Z,8.88
2017-12-21T01:57:50.933Z,8.83
2017-12-21T01:58:45.415Z,8.91
2017-12-21T01:58:46.012Z,8.86
2017-12-21T01:58:46.610Z,8.88
2017-12-21T01:58:47.211Z,8.86
2017-12-21T01:58:47.810Z,8.83
2017-12-21T01:58:48.411Z,8.84
2017-12-21T01:58:49.011Z,8.88
2017-12-21T01:58:49.610Z,8.87
2017-12-21T01:59:43.066Z,8.87
2017-12-21T01:59:43.663Z,8.90
2017-12-21T01:59:44.261Z,8.87
2017-12-21T01:59:44.868Z,8.87
2017-12-21T01:59:45.462Z,8.81
2017-12-21T01:59:46.063Z,8.83
2017-12-21T01:59:46.662Z,8.83
2017-12-21T01:59:47.263Z,8.93
2017-12-21T02:00:41.741Z,8.86
2017-12-21T02:00:42.336Z,8.90
2017-12-21T02:00:42.938Z,8.91
2017-12-21T02:00:43.538Z,8.87
2017-12-21T02:00:44.137Z,8.84
2017-12-21T02:00:44.738Z,8.88
2017-12-21T02:00:45.339Z,8.87
2017-12-21T02:00:45.936Z,8.90
2017-12-21T02:01:39.393Z,8.88
2017-12-21T02:01:39.991Z,8.86
2017-12-21T02:01:40.590Z,8.87
2017-12-21T02:01:41.195Z,8.91
2017-12-21T02:01:41.787Z,8.91
2017-12-21T02:01:42.388Z,8.88
2017-12-21T02:01:42.990Z,8.94
2017-12-21T02:01:43.588Z,8.94
2017-12-21T02:02:38.068Z,8.83
2017-12-21T02:02:38.667Z,8.87
2017-12-21T02:02:39.266Z,8.94
2017-12-21T02:02:39.867Z,8.87
2017-12-21T02:02:40.465Z,8.87
2017-12-21T02:02:41.065Z,8.87
2017-12-21T02:02:41.666Z,8.86
2017-12-21T02:02:42.266Z,8.91
2017-12-21T02:03:35.745Z,8.90
2017-12-21T02:03:36.317Z,8.90
2017-12-21T02:03:36.917Z,8.90
2017-12-21T02:03:37.519Z,8.94
2017-12-21T02:03:38.117Z,8.91
2017-12-21T02:03:38.721Z,8.93
2017-12-21T02:03:39.316Z,8.94
2017-12-21T02:03:39.917Z,8.94
2017-12-21T02:04:34.396Z,8.91
2017-12-21T02:04:34.992Z,8.94
2017-12-21T02:04:35.598Z,8.88
2017-12-21T02:04:36.193Z,8.94
2017-12-21T02:04:36.792Z,8.96
2017-12-21T02:04:37.392Z,8.91
2017-12-21T02:04:37.990Z,8.97
2017-12-21T02:04:38.593Z,8.90
2017-12-21T02:05:32.048Z,8.88
2017-12-21T02:05:32.647Z,8.97
2017-12-21T02:05:33.245Z,8.97
2017-12-21T02:05:33.846Z,8.94
2017-12-21T02:05:34.444Z,8.96
2017-12-21T02:05:35.045Z,8.94
2017-12-21T02:05:35.646Z,8.99
2017-12-21T02:05:36.245Z,8.97
2017-12-21T02:06:30.725Z,9.01
2017-12-21T02:06:31.322Z,9.02
2017-12-21T02:06:31.920Z,8.97
2017-12-21T02:06:32.520Z,8.94
2017-12-21T02:06:33.119Z,8.99
2017-12-21T02:06:33.720Z,8.97
2017-12-21T02:06:34.319Z,8.99
2017-12-21T02:06:34.919Z,8.97
2017-12-21T02:07:29.400Z,8.97
2017-12-21T02:07:29.995Z,8.91
2017-12-21T02:07:30.595Z,8.96
2017-12-21T02:07:31.196Z,8.99
2017-12-21T02:07:31.795Z,8.97
2017-12-21T02:07:32.395Z,8.99
2017-12-21T02:07:32.996Z,8.93
2017-12-21T02:07:33.595Z,8.97
2017-12-21T02:08:27.087Z,8.97
2017-12-21T02:08:27.648Z,8.97
2017-12-21T02:08:28.250Z,8.97
2017-12-21T02:08:28.847Z,9.02
2017-12-21T02:08:29.447Z,8.94
2017-12-21T02:08:30.046Z,8.96
2017-12-21T02:08:30.647Z,8.97
2017-12-21T02:08:31.247Z,8.96
2017-12-21T02:09:24.702Z,8.97
2017-12-21T02:09:25.302Z,9.06
2017-12-21T02:09:25.901Z,9.05
2017-12-21T02:09:26.500Z,9.04
2017-12-21T02:09:27.102Z,9.04
2017-12-21T02:09:27.700Z,9.05
2017-12-21T02:09:28.299Z,9.01
2017-12-21T02:09:28.899Z,9.09
2017-12-21T02:10:23.446Z,9.16
2017-12-21T02:10:23.975Z,9.09
2017-12-21T02:10:24.573Z,9.10
2017-12-21T02:10:25.174Z,9.10
2017-12-21T02:10:25.774Z,9.16
2017-12-21T02:10:26.375Z,9.15
2017-12-21T02:10:26.973Z,9.06
2017-12-21T02:10:27.574Z,9.10
2017-12-21T02:11:22.053Z,9.12
2017-12-21T02:11:22.652Z,9.13
2017-12-21T02:11:23.250Z,9.12
2017-12-21T02:11:23.849Z,9.13
2017-12-21T02:11:24.450Z,9.13
2017-12-21T02:11:25.051Z,9.15
2017-12-21T02:11:25.650Z,9.23
2017-12-21T02:11:26.249Z,9.12
2017-12-21T02:12:19.706Z,9.13
2017-12-21T02:12:20.308Z,9.20
2017-12-21T02:12:20.903Z,9.13
2017-12-21T02:12:21.501Z,9.24
2017-12-21T02:12:22.104Z,9.12
2017-12-21T02:12:22.703Z,9.21
2017-12-21T02:12:23.302Z,9.15
2017-12-21T02:12:23.901Z,9.16
2017-12-21T02:13:18.379Z,9.18
2017-12-21T02:13:18.979Z,9.20
2017-12-21T02:13:19.579Z,9.10
2017-12-21T02:13:20.177Z,9.18
2017-12-21T02:13:20.777Z,9.10
2017-12-21T02:13:21.377Z,9.15
2017-12-21T02:13:21.978Z,9.10
2017-12-21T02:13:22.579Z,9.21
2017-12-21T02:14:17.088Z,9.13
2017-12-21T02:14:17.655Z,9.16
2017-12-21T02:14:18.254Z,9.10
2017-12-21T02:14:18.854Z,9.12
2017-12-21T02:14:19.453Z,9.16
2017-12-21T02:14:20.052Z,9.13
2017-12-21T02:14:20.653Z,9.12
2017-12-21T02:14:21.253Z,9.20
2017-12-21T02:15:15.732Z,9.20
2017-12-21T02:15:16.329Z,9.20
2017-12-21T02:15:16.928Z,9.23
2017-12-21T02:15:17.530Z,9.10
2017-12-21T02:15:18.128Z,9.13
2017-12-21T02:15:18.728Z,9.10
2017-12-21T02:15:19.329Z,9.12
2017-12-21T02:15:19.927Z,9.09
2017-12-21T02:16:14.409Z,9.21
2017-12-21T02:16:15.008Z,9.21
2017-12-21T02:16:15.605Z,9.16
2017-12-21T02:16:16.204Z,9.20
2017-12-21T02:16:16.807Z,9.13
2017-12-21T02:16:17.405Z,9.18
2017-12-21T02:16:18.004Z,9.18
2017-12-21T02:16:18.604Z,9.13
2017-12-21T02:17:13.084Z,9.13
2017-12-21T02:17:13.680Z,9.06
2017-12-21T02:17:14.280Z,9.12
2017-12-21T02:17:14.880Z,9.05
2017-12-21T02:17:15.481Z,9.18
2017-12-21T02:17:16.079Z,9.09
2017-12-21T02:17:16.680Z,9.16
2017-12-21T02:17:17.278Z,9.15
2017-12-21T02:18:10.736Z,9.13
2017-12-21T02:18:11.336Z,9.06
2017-12-21T02:18:11.933Z,9.16
2017-12-21T02:18:12.533Z,9.13
2017-12-21T02:18:13.132Z,9.24
2017-12-21T02:18:13.733Z,9.13
2017-12-21T02:18:14.332Z,9.16
2017-12-21T02:18:14.932Z,9.10
2017-12-21T02:19:09.413Z,9.15
2017-12-21T02:19:10.008Z,9.16
2017-12-21T02:19:10.607Z,9.15
2017-12-21T02:19:11.211Z,9.21
2017-12-21T02:19:11.807Z,9.10
2017-12-21T02:19:12.409Z,9.09
2017-12-21T02:19:13.010Z,9.12
2017-12-21T02:19:13.609Z,9.15
2017-12-21T02:20:07.090Z,9.09
2017-12-21T02:20:07.661Z,9.13
2017-12-21T02:20:08.260Z,9.20
2017-12-21T02:20:08.861Z,9.16
2017-12-21T02:20:09.460Z,9.20
2017-12-21T02:20:10.061Z,9.10
2017-12-21T02:20:10.661Z,9.20
2017-12-21T02:20:11.260Z,9.10
2017-12-21T02:21:04.715Z,9.12
2017-12-21T02:21:05.310Z,9.12
2017-12-21T02:21:05.911Z,9.12
2017-12-21T02:21:06.513Z,9.13
2017-12-21T02:21:07.113Z,9.20
2017-12-21T02:21:07.710Z,9.13
2017-12-21T02:21:08.312Z,9.15
2017-12-21T02:21:08.910Z,9.18
2017-12-21T02:22:02.368Z,9.23
2017-12-21T02:22:02.965Z,9.21
2017-12-21T02:22:03.565Z,9.21
2017-12-21T02:22:04.163Z,9.27
2017-12-21T02:22:04.765Z,9.31
2017-12-21T02:22:05.364Z,9.27
2017-12-21T02:22:05.963Z,9.30
2017-12-21T02:22:06.562Z,9.23
2017-12-21T02:23:01.042Z,9.30
2017-12-21T02:23:01.638Z,9.25
2017-12-21T02:23:02.239Z,9.23
2017-12-21T02:23:02.838Z,9.25
2017-12-21T02:23:03.444Z,9.28
2017-12-21T02:23:04.038Z,9.21
2017-12-21T02:23:04.639Z,9.27
2017-12-21T02:23:05.237Z,9.28
2017-12-21T02:23:59.717Z,9.25
2017-12-21T02:24:00.314Z,9.27
2017-12-21T02:24:00.914Z,9.28
2017-12-21T02:24:01.513Z,9.31
2017-12-21T02:24:02.114Z,9.20
2017-12-21T02:24:02.717Z,9.23
2017-12-21T02:24:03.314Z,9.25
2017-12-21T02:24:03.914Z,9.28
2017-12-21T02:24:57.395Z,9.25
2017-12-21T02:24:57.968Z,9.30
2017-12-21T02:24:58.566Z,9.23
2017-12-21T02:24:59.167Z,9.32
2017-12-21T02:24:59.767Z,9.31
2017-12-21T02:25:00.366Z,9.27
2017-12-21T02:25:00.964Z,9.27
2017-12-21T02:25:01.568Z,9.24
2017-12-21T02:25:55.021Z,9.13
2017-12-21T02:25:55.617Z,9.13
2017-12-21T02:25:56.218Z,9.24
2017-12-21T02:25:56.820Z,9.25
2017-12-21T02:25:57.417Z,9.09
2017-12-21T02:25:58.017Z,9.23
2017-12-21T02:25:58.618Z,9.23
2017-12-21T02:25:59.217Z,9.09
2017-12-21T02:26:52.672Z,9.21
2017-12-21T02:26:53.270Z,9.32
2017-12-21T02:26:53.876Z,9.30
2017-12-21T02:26:54.470Z,9.23
2017-12-21T02:26:55.069Z,9.23
2017-12-21T02:26:55.670Z,9.27
2017-12-21T02:26:56.270Z,9.28
2017-12-21T02:26:56.868Z,9.30
2017-12-21T02:27:51.349Z,9.24
2017-12-21T02:27:51.945Z,9.25
2017-12-21T02:27:52.544Z,9.23
2017-12-21T02:27:53.144Z,9.25
2017-12-21T02:27:53.744Z,9.25
2017-12-21T02:27:54.344Z,9.28
2017-12-21T02:27:54.944Z,9.25
2017-12-21T02:27:55.545Z,9.30
2017-12-21T02:28:50.023Z,9.28
2017-12-21T02:28:50.620Z,9.32
2017-12-21T02:28:51.222Z,9.27
2017-12-21T02:28:51.819Z,9.24
2017-12-21T02:28:52.419Z,9.27
2017-12-21T02:28:53.019Z,9.24
2017-12-21T02:28:53.619Z,9.27
2017-12-21T02:28:54.254Z,9.25
2017-12-21T02:29:47.675Z,9.12
2017-12-21T02:29:48.273Z,9.28
2017-12-21T02:29:48.873Z,9.21
2017-12-21T02:29:49.476Z,9.23
2017-12-21T02:29:50.075Z,9.24
2017-12-21T02:29:50.676Z,9.21
2017-12-21T02:29:51.271Z,9.28
2017-12-21T02:29:51.871Z,9.21
2017-12-21T02:30:46.449Z,9.20
2017-12-21T02:30:46.954Z,9.23
2017-12-21T02:30:47.555Z,9.23
2017-12-21T02:30:48.153Z,9.24
2017-12-21T02:30:48.752Z,9.21
2017-12-21T02:30:49.353Z,9.24
2017-12-21T02:30:49.954Z,9.23
2017-12-21T02:30:50.551Z,9.24
2017-12-21T02:31:44.004Z,9.25
2017-12-21T02:31:44.601Z,9.27
2017-12-21T02:31:45.214Z,9.31
2017-12-21T02:31:45.803Z,9.30
2017-12-21T02:31:46.453Z,9.28
2017-12-21T02:31:46.998Z,9.25
2017-12-21T02:31:47.598Z,9.32
2017-12-21T02:31:48.198Z,9.24
2017-12-21T02:32:42.680Z,9.23
2017-12-21T02:32:43.275Z,9.27
2017-12-21T02:32:43.875Z,9.25
2017-12-21T02:32:44.474Z,9.27
2017-12-21T02:32:45.077Z,9.27
2017-12-21T02:32:45.674Z,9.31
2017-12-21T02:32:46.274Z,9.23
2017-12-21T02:32:46.876Z,9.27
2017-12-21T02:52:10.303Z,9.10
2017-12-21T02:52:10.809Z,9.10
2017-12-21T02:52:11.408Z,9.09
2017-12-21T02:52:12.007Z,9.10
2017-12-21T02:52:12.607Z,9.06
2017-12-21T02:52:13.207Z,9.12
2017-12-21T04:06:15.398Z,9.05
2017-12-21T04:06:15.960Z,8.97
2017-12-21T04:06:16.562Z,8.97
2017-12-21T04:06:17.158Z,9.02
2017-12-21T04:06:17.759Z,9.04
2017-12-21T04:06:18.358Z,9.02
2017-12-21T04:06:18.958Z,8.99
2017-12-21T04:06:19.558Z,9.04
2017-12-21T04:07:13.022Z,8.94
2017-12-21T04:07:13.615Z,8.94
2017-12-21T04:07:14.213Z,8.96
2017-12-21T04:07:14.813Z,8.97
2017-12-21T04:07:15.413Z,9.05
2017-12-21T04:07:16.013Z,9.01
2017-12-21T04:07:16.616Z,8.97
2017-12-21T04:07:17.212Z,9.02
2017-12-21T04:08:11.694Z,9.05
2017-12-21T04:08:12.289Z,9.01
2017-12-21T04:08:12.888Z,9.06
2017-12-21T04:08:13.488Z,9.02
2017-12-21T04:08:14.089Z,9.02
2017-12-21T04:08:14.687Z,9.04
2017-12-21T04:08:15.288Z,9.02
2017-12-21T04:08:15.887Z,8.96
2017-12-21T04:09:10.369Z,8.94
2017-12-21T04:09:10.965Z,9.05
2017-12-21T04:09:11.563Z,9.04
2017-12-21T04:09:12.167Z,8.97
2017-12-21T04:09:12.765Z,8.96
2017-12-21T04:09:13.364Z,8.96
2017-12-21T04:09:13.966Z,9.01
2017-12-21T04:09:14.567Z,8.99
2017-12-21T04:10:08.020Z,8.96
2017-12-21T04:10:08.616Z,9.01
2017-12-21T04:10:09.216Z,8.96
2017-12-21T04:10:09.817Z,9.01
2017-12-21T04:10:10.416Z,8.99
2017-12-21T04:10:11.016Z,9.04
2017-12-21T04:10:11.616Z,8.97
2017-12-21T04:10:12.220Z,9.02
2017-12-21T04:11:05.674Z,8.97
2017-12-21T04:11:06.270Z,8.99
2017-12-21T04:11:06.871Z,9.02
2017-12-21T04:11:07.469Z,8.93
2017-12-21T04:11:08.069Z,9.01
2017-12-21T04:11:08.669Z,8.97
2017-12-21T04:11:09.269Z,8.94
2017-12-21T04:11:09.869Z,9.01
2017-12-21T04:12:04.381Z,8.97
2017-12-21T04:12:04.945Z,8.94
2017-12-21T04:12:05.544Z,9.01
2017-12-21T04:12:06.144Z,8.96
2017-12-21T04:12:06.744Z,9.01
2017-12-21T04:12:07.345Z,9.02
2017-12-21T04:12:07.943Z,9.02
2017-12-21T04:12:08.551Z,8.96
2017-12-21T04:13:02.001Z,8.93
2017-12-21T04:13:02.597Z,8.97
2017-12-21T04:13:03.201Z,9.04
2017-12-21T04:13:03.799Z,9.01
2017-12-21T04:13:04.396Z,9.05
2017-12-21T04:13:04.997Z,8.97
2017-12-21T04:13:05.596Z,9.06
2017-12-21T04:13:06.196Z,9.05
2017-12-21T04:13:59.653Z,9.02
2017-12-21T04:14:00.249Z,9.05
2017-12-21T04:14:00.850Z,9.02
2017-12-21T04:14:01.449Z,8.99
2017-12-21T04:14:02.049Z,8.99
2017-12-21T04:14:02.649Z,9.05
2017-12-21T04:14:03.249Z,8.96
2017-12-21T04:14:03.848Z,8.97
2017-12-21T04:14:58.328Z,9.01
2017-12-21T04:14:58.934Z,9.05
2017-12-21T04:14:59.526Z,9.06
2017-12-21T04:15:00.125Z,8.97
2017-12-21T04:15:00.726Z,8.96
2017-12-21T04:15:01.324Z,9.02
2017-12-21T04:15:01.924Z,8.99
2017-12-21T04:15:02.525Z,9.02
2017-12-21T04:15:57.013Z,8.99
2017-12-21T04:15:57.601Z,9.01
2017-12-21T04:15:58.200Z,9.05
2017-12-21T04:15:58.800Z,8.99
2017-12-21T04:15:59.400Z,9.05
2017-12-21T04:16:00.004Z,9.13
2017-12-21T04:16:00.601Z,9.12
2017-12-21T04:16:01.200Z,9.02
2017-12-21T04:16:54.658Z,8.97
2017-12-21T04:16:55.254Z,8.99
2017-12-21T04:16:55.853Z,8.96
2017-12-21T04:16:56.453Z,9.06
2017-12-21T04:16:57.052Z,8.99
2017-12-21T04:16:57.652Z,9.06
2017-12-21T04:16:58.252Z,8.97
2017-12-21T04:16:58.852Z,8.96
2017-12-21T04:17:53.356Z,9.04
2017-12-21T04:17:53.929Z,8.97
2017-12-21T04:17:54.528Z,8.96
2017-12-21T04:17:55.130Z,9.02
2017-12-21T04:17:55.727Z,9.04
2017-12-21T04:17:56.331Z,9.04
2017-12-21T04:17:56.927Z,9.05
2017-12-21T04:17:57.528Z,9.01
2017-12-21T04:18:52.009Z,9.05
2017-12-21T04:18:52.604Z,9.06
2017-12-21T04:18:53.203Z,9.16
2017-12-21T04:18:53.803Z,9.09
2017-12-21T04:18:54.403Z,9.09
2017-12-21T04:18:55.004Z,9.09
2017-12-21T04:18:55.603Z,9.06
2017-12-21T04:18:56.203Z,9.05
2017-12-21T04:19:49.662Z,8.97
2017-12-21T04:19:50.256Z,9.04
2017-12-21T04:19:50.858Z,9.05
2017-12-21T04:19:51.455Z,9.12
2017-12-21T04:19:52.055Z,9.16
2017-12-21T04:19:52.663Z,9.12
2017-12-21T04:19:53.254Z,9.15
2017-12-21T04:19:53.856Z,9.09
2017-12-21T04:20:48.339Z,9.05
2017-12-21T04:20:48.932Z,9.05
2017-12-21T04:20:49.532Z,9.06
2017-12-21T04:20:50.130Z,9.09
2017-12-21T04:20:50.731Z,9.02
2017-12-21T04:20:51.332Z,9.06
2017-12-21T04:20:51.931Z,9.10
2017-12-21T04:20:52.530Z,9.09
2017-12-21T04:21:47.011Z,9.05
2017-12-21T04:21:47.607Z,9.09
2017-12-21T04:21:48.208Z,9.13
2017-12-21T04:21:48.807Z,9.10
2017-12-21T04:21:49.407Z,9.05
2017-12-21T04:21:50.007Z,9.12
2017-12-21T04:21:50.608Z,9.12
2017-12-21T04:21:51.206Z,9.16
2017-12-21T04:22:44.704Z,9.09
2017-12-21T04:22:45.260Z,9.09
2017-12-21T04:22:45.858Z,9.06
2017-12-21T04:22:46.459Z,9.13
2017-12-21T04:22:47.059Z,9.15
2017-12-21T04:22:47.659Z,9.12
2017-12-21T04:22:48.259Z,9.10
2017-12-21T04:22:48.859Z,9.13
2017-12-21T04:23:42.316Z,9.12
2017-12-21T04:23:42.911Z,9.21
2017-12-21T04:23:43.512Z,9.13
2017-12-21T04:23:44.109Z,9.12
2017-12-21T04:23:44.712Z,9.13
2017-12-21T04:23:45.310Z,9.18
2017-12-21T04:23:45.910Z,9.15
2017-12-21T04:23:46.510Z,9.21
2017-12-21T04:24:40.990Z,9.13
2017-12-21T04:24:41.586Z,9.16
2017-12-21T04:24:42.188Z,9.18
2017-12-21T04:24:42.787Z,9.10
2017-12-21T04:24:43.385Z,9.16
2017-12-21T04:24:43.987Z,9.15
2017-12-21T04:24:44.584Z,9.10
2017-12-21T04:24:45.185Z,9.13
2017-12-21T04:25:38.642Z,9.18
2017-12-21T04:25:39.238Z,9.13
2017-12-21T04:25:39.838Z,9.10
2017-12-21T04:25:40.444Z,9.15
2017-12-21T04:25:41.037Z,9.10
2017-12-21T04:25:41.637Z,9.13
2017-12-21T04:25:42.238Z,9.13
2017-12-21T04:25:42.889Z,9.15
2017-12-21T04:26:37.318Z,9.13
2017-12-21T04:26:37.913Z,9.13
2017-12-21T04:26:38.513Z,9.13
2017-12-21T04:26:39.115Z,9.12
2017-12-21T04:26:39.713Z,9.12
2017-12-21T04:26:40.313Z,9.13
2017-12-21T04:26:40.912Z,9.13
2017-12-21T04:26:41.511Z,9.13
2017-12-21T04:27:34.968Z,9.13
2017-12-21T04:27:35.566Z,9.12
2017-12-21T04:27:36.165Z,9.15
2017-12-21T04:27:36.766Z,9.12
2017-12-21T04:27:37.366Z,9.10
2017-12-21T04:27:37.965Z,9.10
2017-12-21T04:27:38.563Z,9.23
2017-12-21T04:27:39.166Z,9.16
2017-12-21T04:28:32.646Z,9.13
2017-12-21T04:28:33.218Z,9.24
2017-12-21T04:28:33.819Z,9.16
2017-12-21T04:28:34.418Z,9.24
2017-12-21T04:28:35.017Z,9.24
2017-12-21T04:28:35.624Z,9.27
2017-12-21T04:28:36.218Z,9.24
2017-12-21T04:28:36.817Z,9.09
2017-12-21T04:29:31.295Z,9.23
2017-12-21T04:29:31.892Z,9.24
2017-12-21T04:29:32.492Z,9.27
2017-12-21T04:29:33.092Z,9.27
2017-12-21T04:29:33.692Z,9.34
2017-12-21T04:29:34.292Z,9.24
2017-12-21T04:29:34.892Z,9.23
2017-12-21T04:29:35.490Z,9.23
2017-12-21T04:30:28.949Z,9.31
2017-12-21T04:30:29.544Z,9.28
2017-12-21T04:30:30.145Z,9.25
2017-12-21T04:30:30.746Z,9.30
2017-12-21T04:30:31.345Z,9.25
2017-12-21T04:30:31.944Z,9.27
2017-12-21T04:30:32.544Z,9.25
2017-12-21T04:30:33.143Z,9.27
2017-12-21T04:31:27.624Z,9.24
2017-12-21T04:31:28.220Z,9.28
2017-12-21T04:31:28.822Z,9.28
2017-12-21T04:31:29.420Z,9.23
2017-12-21T04:31:30.019Z,9.28
2017-12-21T04:31:30.619Z,9.24
2017-12-21T04:31:31.219Z,9.27
2017-12-21T04:31:31.818Z,9.25
2017-12-21T04:32:26.301Z,9.30
2017-12-21T04:32:26.896Z,9.28
2017-12-21T04:32:27.495Z,9.30
2017-12-21T04:32:28.096Z,9.27
2017-12-21T04:32:28.695Z,9.27
2017-12-21T04:32:29.295Z,9.27
2017-12-21T04:32:29.894Z,9.30
2017-12-21T04:32:30.494Z,9.27
2017-12-21T04:33:25.007Z,9.28
2017-12-21T04:33:25.572Z,9.27
2017-12-21T04:33:26.171Z,9.28
2017-12-21T04:33:26.770Z,9.30
2017-12-21T04:33:27.372Z,9.21
2017-12-21T04:33:27.970Z,9.23
2017-12-21T04:33:28.571Z,9.25
2017-12-21T04:33:29.170Z,9.25
2017-12-21T04:34:23.650Z,9.25
2017-12-21T04:34:24.246Z,9.23
2017-12-21T04:34:24.847Z,9.27
2017-12-21T04:34:25.446Z,9.25
2017-12-21T04:34:26.047Z,9.27
2017-12-21T04:34:26.645Z,9.27
2017-12-21T04:34:27.245Z,9.27
2017-12-21T04:34:27.845Z,9.24
2017-12-21T04:35:21.302Z,9.30
2017-12-21T04:35:21.899Z,9.25
2017-12-21T04:35:22.500Z,9.30
2017-12-21T04:35:23.099Z,9.24
2017-12-21T04:35:23.699Z,9.27
2017-12-21T04:35:24.298Z,9.27
2017-12-21T04:35:24.898Z,9.27
2017-12-21T04:35:25.498Z,9.27
2017-12-21T04:36:19.977Z,9.27
2017-12-21T04:36:20.576Z,9.28
2017-12-21T04:36:21.175Z,9.28
2017-12-21T04:36:21.774Z,9.27
2017-12-21T04:36:22.381Z,9.27
2017-12-21T04:36:22.974Z,9.24
2017-12-21T04:36:23.573Z,9.25
2017-12-21T04:36:24.174Z,9.25
2017-12-21T04:37:17.631Z,9.30
2017-12-21T04:37:18.227Z,9.27
2017-12-21T04:37:18.826Z,9.27
2017-12-21T04:37:19.426Z,9.27
2017-12-21T04:37:20.027Z,9.28
2017-12-21T04:37:20.628Z,9.27
2017-12-21T04:37:21.225Z,9.25
2017-12-21T04:37:21.827Z,9.23
2017-12-21T04:38:16.307Z,9.30
2017-12-21T04:38:16.901Z,9.25
2017-12-21T04:38:17.502Z,9.24
2017-12-21T04:38:18.100Z,9.25
2017-12-21T04:38:18.700Z,9.28
2017-12-21T04:38:19.300Z,9.25
2017-12-21T04:38:19.902Z,9.24
2017-12-21T04:38:20.500Z,9.25
2017-12-21T04:39:13.989Z,9.30
2017-12-21T04:39:14.554Z,9.25
2017-12-21T04:39:15.168Z,9.28
2017-12-21T04:39:15.753Z,9.30
2017-12-21T04:39:16.353Z,9.25
2017-12-21T04:39:16.954Z,9.24
2017-12-21T04:39:17.553Z,9.25
2017-12-21T04:39:18.153Z,9.27
2017-12-21T04:40:12.634Z,9.25
2017-12-21T04:40:13.229Z,9.27
2017-12-21T04:40:13.830Z,9.27
2017-12-21T04:40:14.429Z,9.27
2017-12-21T04:40:15.028Z,9.24
2017-12-21T04:40:15.629Z,9.27
2017-12-21T04:40:16.228Z,9.24
2017-12-21T04:40:16.828Z,9.28
2017-12-21T04:41:10.284Z,9.24
2017-12-21T04:41:10.881Z,9.27
2017-12-21T04:41:11.481Z,9.32
2017-12-21T04:41:12.081Z,9.24
2017-12-21T04:41:12.709Z,9.27
2017-12-21T04:41:13.282Z,9.24
2017-12-21T04:41:13.881Z,9.28
2017-12-21T04:41:14.481Z,9.28
2017-12-21T04:42:08.961Z,9.23
2017-12-21T04:42:09.558Z,9.24
2017-12-21T04:42:10.156Z,9.31
2017-12-21T04:42:10.757Z,9.34
2017-12-21T04:42:11.358Z,9.25
2017-12-21T04:42:11.956Z,9.24
2017-12-21T04:42:12.555Z,9.34
2017-12-21T04:42:13.156Z,9.25
2017-12-21T04:43:06.611Z,9.30
2017-12-21T04:43:07.208Z,9.25
2017-12-21T04:43:07.808Z,9.32
2017-12-21T04:43:08.408Z,9.27
2017-12-21T04:43:09.007Z,9.34
2017-12-21T04:43:09.607Z,9.34
2017-12-21T04:43:10.213Z,9.32
2017-12-21T04:43:10.809Z,9.34
2017-12-21T04:44:04.263Z,9.28
2017-12-21T04:44:04.859Z,9.39
2017-12-21T04:44:05.461Z,9.38
2017-12-21T04:44:06.061Z,9.35
2017-12-21T04:44:06.660Z,9.32
2017-12-21T04:44:07.260Z,9.39
2017-12-21T04:44:07.861Z,9.30
2017-12-21T04:44:08.458Z,9.30
2017-12-21T04:45:01.944Z,9.39
2017-12-21T04:45:02.510Z,9.35
2017-12-21T04:45:03.110Z,9.38
2017-12-21T04:45:03.709Z,9.46
2017-12-21T04:45:04.310Z,9.38
2017-12-21T04:45:04.911Z,9.32
2017-12-21T04:45:05.509Z,9.38
2017-12-21T04:45:06.109Z,9.42
2017-12-21T04:46:00.080Z,9.35
2017-12-21T04:46:00.674Z,9.35
2017-12-21T04:46:01.275Z,9.30
2017-12-21T04:46:01.878Z,9.31